To NAV CANADA Home Page Login to a new session Search on AWWS site Disclaimer Vers la page française équivalente Tips FAQ What's new on the site To the Forecasts and Observations / NOTAM section To "File a Flight Plan" website Publications and other links Update of the User's profile FIC Telephone Numbers My Weather Data Folder Route Weather Data Regional Weather Data Local Weather Data To the Forecasts and Observations / NOTAM section
Request Generated 12/13/2018 at 12:15:41 UTC . Weather information available at that time is displayed.


Go to a specific product

Save this request - Inactive

METAR/TAF

CALGARY/YYC CALGARY INTL/AB    

METAR CYYC 131200Z 21004KT 160V250 15SM BKN230 M01/M10 A2963 RMK CI5 SLP075=
METAR CYYC 131100Z 18004KT 15SM BKN250 M03/M11 A2964 RMK CI6 SLP082=
METAR CYYC 131000Z 25003KT 200V290 15SM BKN210 M03/M11 A2966 RMK CI6 SLP091=

TAF CYYC 131138Z 1312/1412 22010KT P6SM FEW120 BKN200
FM131600 22010G20KT P6SM SCT200
BECMG 1320/1322 26010G20KT
FM140200 18006KT P6SM SKC
RMK NXT FCST BY 131500Z=

CALGARY/SPRINGBANK/AB    (show WxCam)

METAR CYBW 131200Z AUTO 31008KT 9SM CLR 01/M10 A2962 RMK SLP073=
METAR CYBW 131100Z AUTO 24005KT 170V280 9SM BKN240 M03/M12 A2963 RMK SLP082=
METAR CYBW 131000Z AUTO 20004KT 150V280 9SM OVC220 01/M12 A2967 RMK SLP088=

*** REMARK        : Forecast period has ended; this was the last TAF issued
*** REMARQUE : La période de prévision est échue; ceci était le dernier TAF qui a été émis
TAF CYBW 122340Z 1300/1305 27022G32KT P6SM BKN190
BECMG 1302/1304 27015G25KT
RMK FCST BASED ON AUTO OBS. NXT FCST WILL BE ISSUED AT 131245Z=


GRAPHICAL FA CLOUDS & WEATHER FORECASTS
To the Product Selector
Graphical FA gfacn32      

GRAPHICAL FA ICING, TURBULENCE & FREEZING LEVEL FORECASTS
To the Product Selector
Graphical FA gfacn32      

Your time UTC time
Weather data provided by Environment Canada and NAV CANADA